createdAt,value
2022-12-09T00:01:31.339Z,-2.90
2022-12-09T00:04:07.298Z,-2.90
2022-12-09T00:06:36.210Z,-2.80
2022-12-09T00:09:16.987Z,-2.80
2022-12-09T00:11:54.430Z,-2.80
2022-12-09T00:14:26.530Z,-2.80
2022-12-09T00:16:55.207Z,-2.70
2022-12-09T00:19:23.943Z,-2.70
2022-12-09T00:21:54.412Z,-2.60
2022-12-09T00:24:23.449Z,-2.60
2022-12-09T00:26:54.446Z,-2.60
2022-12-09T00:29:23.561Z,-2.50
2022-12-09T00:31:59.151Z,-2.40
2022-12-09T00:34:28.033Z,-2.40
2022-12-09T00:37:05.037Z,-2.30
2022-12-09T00:39:44.534Z,-2.30
2022-12-09T00:42:22.474Z,-2.20
2022-12-09T00:44:56.987Z,-2.20
2022-12-09T00:47:27.293Z,-2.20
2022-12-09T00:50:00.357Z,-2.30
2022-12-09T00:52:29.389Z,-2.30
2022-12-09T00:55:04.380Z,-2.40
2022-12-09T00:57:41.263Z,-2.50
2022-12-09T01:00:19.460Z,-2.50
2022-12-09T01:02:56.968Z,-2.50
2022-12-09T01:05:33.045Z,-2.50
2022-12-09T01:08:02.188Z,-2.50
2022-12-09T01:10:37.872Z,-2.50
2022-12-09T01:13:12.249Z,-2.50
2022-12-09T01:15:41.804Z,-2.60
2022-12-09T01:18:13.546Z,-2.60
2022-12-09T01:20:45.537Z,-2.80
2022-12-09T01:23:14.963Z,-2.80
2022-12-09T01:25:44.234Z,-3.00
2022-12-09T01:28:14.620Z,-3.10
2022-12-09T01:30:47.768Z,-3.00
2022-12-09T01:33:16.772Z,-3.00
2022-12-09T01:35:50.159Z,-3.10
2022-12-09T01:38:18.947Z,-3.00
2022-12-09T01:40:53.634Z,-3.00
2022-12-09T01:43:31.765Z,-3.00
2022-12-09T01:46:00.849Z,-3.00
2022-12-09T01:48:37.880Z,-3.20
2022-12-09T01:51:23.541Z,-3.40
2022-12-09T01:53:58.202Z,-3.40
2022-12-09T01:56:34.091Z,-3.40
2022-12-09T01:59:12.841Z,-3.30
2022-12-09T02:01:47.204Z,-3.10
2022-12-09T02:04:18.674Z,-2.90
2022-12-09T02:06:47.772Z,-2.60
2022-12-09T02:09:16.824Z,-2.40
2022-12-09T02:12:05.453Z,-2.20
2022-12-09T02:14:42.698Z,-2.10
2022-12-09T02:17:32.916Z,-2.00
2022-12-09T02:20:19.297Z,-1.90
2022-12-09T02:22:56.588Z,-1.80
2022-12-09T02:25:35.927Z,-1.70
2022-12-09T02:28:59.713Z,-1.60
2022-12-09T02:32:06.087Z,-1.60
2022-12-09T02:34:44.883Z,-1.50
2022-12-09T02:37:22.063Z,-1.40
2022-12-09T02:40:00.330Z,-1.30
2022-12-09T02:42:36.728Z,-1.30
2022-12-09T02:45:11.868Z,-1.30
2022-12-09T02:47:48.256Z,-1.20
2022-12-09T02:50:25.428Z,-1.20
2022-12-09T02:53:00.116Z,-1.10
2022-12-09T02:55:38.603Z,-1.10
2022-12-09T02:58:07.448Z,-1.10
2022-12-09T03:00:40.208Z,-1.00
2022-12-09T03:03:23.729Z,-1.00
2022-12-09T03:06:09.487Z,-1.00
2022-12-09T03:08:51.564Z,-1.00
2022-12-09T03:11:24.011Z,-0.90
2022-12-09T03:14:03.695Z,-0.90
2022-12-09T03:16:40.432Z,-0.90
2022-12-09T03:19:21.717Z,-0.80
2022-12-09T03:21:59.820Z,-0.80
2022-12-09T03:24:35.441Z,-0.80
2022-12-09T03:27:11.757Z,-0.80
2022-12-09T03:29:48.564Z,-0.80
2022-12-09T03:32:29.027Z,-0.80
2022-12-09T03:35:10.274Z,-0.80
2022-12-09T03:37:45.922Z,-0.70
2022-12-09T03:40:30.654Z,-0.70
2022-12-09T03:43:08.360Z,-0.70
2022-12-09T03:45:37.880Z,-0.80
2022-12-09T03:48:07.633Z,-0.80
2022-12-09T03:50:50.474Z,-0.80
2022-12-09T03:53:40.271Z,-0.80
2022-12-09T03:56:21.089Z,-0.90
2022-12-09T03:58:59.019Z,-0.90
2022-12-09T04:01:34.576Z,-1.00
2022-12-09T04:04:06.359Z,-1.00
2022-12-09T04:06:38.509Z,-1.00
2022-12-09T04:09:13.389Z,-1.00
2022-12-09T04:11:42.362Z,-1.00
2022-12-09T04:14:16.014Z,-1.00
2022-12-09T04:16:46.317Z,-1.00
2022-12-09T04:19:18.843Z,-1.00
2022-12-09T04:21:47.763Z,-1.10
2022-12-09T04:24:20.897Z,-1.10
2022-12-09T04:26:50.810Z,-1.10
2022-12-09T04:29:19.897Z,-1.20
2022-12-09T04:31:51.310Z,-1.20
2022-12-09T04:34:20.083Z,-1.20
2022-12-09T04:36:57.994Z,-1.20
2022-12-09T04:39:29.721Z,-1.20
2022-12-09T04:42:01.931Z,-1.30
2022-12-09T04:44:36.480Z,-1.30
2022-12-09T04:47:08.798Z,-1.30
2022-12-09T04:49:40.409Z,-1.30
2022-12-09T04:52:09.432Z,-1.30
2022-12-09T04:54:43.001Z,-1.30
2022-12-09T04:57:12.581Z,-1.40
2022-12-09T04:59:44.092Z,-1.40
2022-12-09T05:02:13.518Z,-1.40
2022-12-09T05:04:48.478Z,-1.40
2022-12-09T05:07:17.946Z,-1.40
2022-12-09T05:09:51.554Z,-1.50
2022-12-09T05:12:20.484Z,-1.50
2022-12-09T05:14:54.130Z,-1.50
2022-12-09T05:17:22.852Z,-1.50
2022-12-09T05:19:54.803Z,-1.50
2022-12-09T05:22:23.942Z,-1.40
2022-12-09T05:24:54.822Z,-1.40
2022-12-09T05:27:37.188Z,-1.40
2022-12-09T05:30:14.595Z,-1.50
2022-12-09T05:32:44.185Z,-1.60
2022-12-09T05:35:14.954Z,-1.60
2022-12-09T05:37:43.820Z,-1.60
2022-12-09T05:40:15.210Z,-1.60
2022-12-09T05:42:48.552Z,-1.60
2022-12-09T05:45:18.000Z,-1.40
2022-12-09T05:47:47.945Z,-1.30
2022-12-09T05:50:18.412Z,-1.30
2022-12-09T05:52:47.837Z,-1.40
2022-12-09T05:55:18.988Z,-1.40
2022-12-09T05:57:48.216Z,-1.40
2022-12-09T06:00:19.914Z,-1.40
2022-12-09T06:02:49.388Z,-1.40
2022-12-09T06:05:24.497Z,-1.30
2022-12-09T06:07:54.002Z,-1.30
2022-12-09T06:10:31.938Z,-1.20
2022-12-09T06:13:01.825Z,-1.20
2022-12-09T06:15:34.587Z,-1.20
2022-12-09T06:18:08.293Z,-1.20
2022-12-09T06:20:43.139Z,-1.10
2022-12-09T06:23:12.551Z,-1.10
2022-12-09T06:25:49.086Z,-1.10
2022-12-09T06:28:19.749Z,-1.00
2022-12-09T06:30:50.769Z,-1.00
2022-12-09T06:33:45.914Z,-0.90
2022-12-09T06:36:11.458Z,-0.90
2022-12-09T06:38:48.369Z,-0.80
2022-12-09T06:41:23.853Z,-0.80
2022-12-09T06:44:21.725Z,-0.70
2022-12-09T06:46:54.721Z,-0.60
2022-12-09T06:49:53.395Z,-0.60
2022-12-09T06:52:24.100Z,-0.60
2022-12-09T06:55:07.695Z,-0.50
2022-12-09T06:57:41.894Z,-0.50
2022-12-09T07:00:20.844Z,-0.40
2022-12-09T07:02:57.470Z,-0.40
2022-12-09T07:05:29.611Z,-0.30
2022-12-09T07:08:03.038Z,-0.30
2022-12-09T07:10:33.546Z,-0.30
2022-12-09T07:13:07.294Z,-0.20
2022-12-09T07:15:42.827Z,-0.20
2022-12-09T07:18:17.773Z,-0.20
2022-12-09T07:20:49.400Z,-0.20
2022-12-09T07:23:18.466Z,-0.20
2022-12-09T07:25:57.871Z,-0.20
2022-12-09T07:28:35.162Z,-0.30
2022-12-09T07:31:05.240Z,-0.20
2022-12-09T07:33:35.207Z,-0.10
2022-12-09T07:36:06.466Z,-0.20
2022-12-09T07:38:35.668Z,-0.10
2022-12-09T07:41:08.344Z,-0.20
2022-12-09T07:43:38.574Z,-0.10
2022-12-09T07:46:08.494Z,0.00
2022-12-09T07:48:37.657Z,0.00
2022-12-09T07:51:08.668Z,0.00
2022-12-09T07:53:40.535Z,-0.10
2022-12-09T07:56:17.067Z,0.00
2022-12-09T07:58:55.258Z,0.00
2022-12-09T08:01:33.781Z,0.00
2022-12-09T08:04:12.309Z,0.00
2022-12-09T08:06:44.921Z,0.10
2022-12-09T08:09:15.751Z,0.10
2022-12-09T08:11:46.319Z,0.20
2022-12-09T08:14:18.735Z,0.20
2022-12-09T08:16:47.895Z,0.10
2022-12-09T08:19:17.138Z,0.10
2022-12-09T08:21:54.804Z,0.00
2022-12-09T08:24:24.342Z,-0.10
2022-12-09T08:26:54.265Z,-0.10
2022-12-09T08:29:25.788Z,-0.10
2022-12-09T08:31:56.860Z,0.00
2022-12-09T08:34:27.046Z,0.10
2022-12-09T08:37:02.028Z,0.10
2022-12-09T08:39:31.758Z,0.10
2022-12-09T08:42:10.370Z,0.00
2022-12-09T08:44:46.873Z,0.00
2022-12-09T08:47:26.063Z,0.10
2022-12-09T08:50:01.876Z,0.20
2022-12-09T08:52:49.162Z,0.20
2022-12-09T08:55:25.318Z,0.20
2022-12-09T08:57:54.690Z,0.20
2022-12-09T09:00:26.972Z,0.20
2022-12-09T09:02:59.090Z,0.10
2022-12-09T09:05:29.179Z,0.10
2022-12-09T09:08:00.189Z,0.10
2022-12-09T09:10:31.141Z,0.10
2022-12-09T09:13:00.981Z,0.10
2022-12-09T09:15:35.311Z,0.10
2022-12-09T09:18:08.473Z,0.20
2022-12-09T09:20:44.919Z,0.20
2022-12-09T09:23:17.789Z,0.20
2022-12-09T09:25:52.312Z,0.30
2022-12-09T09:28:24.778Z,0.20
2022-12-09T09:31:08.343Z,0.40
2022-12-09T09:33:43.552Z,0.40
2022-12-09T09:36:21.001Z,0.50
2022-12-09T09:39:03.191Z,0.60
2022-12-09T09:41:51.990Z,0.60
2022-12-09T09:45:03.310Z,0.60
2022-12-09T09:47:46.287Z,0.70
2022-12-09T09:50:35.324Z,0.80
2022-12-09T09:53:21.464Z,0.90
2022-12-09T09:56:00.207Z,0.90
2022-12-09T09:58:41.307Z,0.90
2022-12-09T10:01:17.794Z,1.00
2022-12-09T10:04:07.921Z,1.00
2022-12-09T10:06:48.093Z,1.00
2022-12-09T10:09:30.206Z,1.10
2022-12-09T10:12:07.575Z,1.10
2022-12-09T10:14:54.252Z,1.10
2022-12-09T10:17:36.885Z,1.20
2022-12-09T10:20:17.330Z,1.20
2022-12-09T10:22:55.880Z,1.30
2022-12-09T10:25:35.435Z,1.40
2022-12-09T10:28:17.391Z,1.60
2022-12-09T10:30:51.014Z,1.50
2022-12-09T10:33:28.438Z,1.50
2022-12-09T10:35:59.211Z,1.60
2022-12-09T10:38:36.404Z,1.60
2022-12-09T10:41:41.545Z,1.50
2022-12-09T10:44:21.784Z,1.60
2022-12-09T10:46:58.895Z,1.70
2022-12-09T10:49:37.824Z,1.80
2022-12-09T10:52:11.290Z,1.80
2022-12-09T10:54:45.092Z,1.90
2022-12-09T10:57:31.328Z,1.70
2022-12-09T11:00:06.469Z,1.80
2022-12-09T11:02:56.920Z,1.90
2022-12-09T11:05:38.531Z,1.90
2022-12-09T11:08:10.023Z,1.90
2022-12-09T11:10:54.623Z,1.90
2022-12-09T11:13:55.546Z,1.90
2022-12-09T11:16:36.993Z,1.80
2022-12-09T11:19:18.562Z,1.90
2022-12-09T11:21:54.686Z,2.00
2022-12-09T11:24:29.317Z,2.10
2022-12-09T11:27:22.404Z,2.10
2022-12-09T11:30:22.410Z,2.20
2022-12-09T11:33:12.297Z,2.10
2022-12-09T11:36:05.140Z,2.00
2022-12-09T11:39:02.387Z,2.10
2022-12-09T11:41:54.008Z,2.10
2022-12-09T11:44:57.023Z,2.10
2022-12-09T11:48:25.853Z,2.20
2022-12-09T11:51:10.652Z,2.30
2022-12-09T11:53:48.310Z,2.00
2022-12-09T11:56:26.022Z,2.00
2022-12-09T11:59:06.916Z,2.10
2022-12-09T12:02:06.391Z,2.00
2022-12-09T12:05:08.822Z,2.10
2022-12-09T12:08:05.863Z,2.20
2022-12-09T12:10:54.320Z,2.00
2022-12-09T12:13:47.807Z,2.00
2022-12-09T12:16:29.230Z,2.10
2022-12-09T12:19:15.317Z,2.20
2022-12-09T12:22:30.332Z,2.40
2022-12-09T12:25:35.370Z,2.50
2022-12-09T12:28:45.856Z,2.40
2022-12-09T12:32:01.659Z,2.40
2022-12-09T12:35:00.792Z,2.50
2022-12-09T12:37:53.239Z,2.50
2022-12-09T12:40:44.553Z,2.50
2022-12-09T12:44:30.548Z,2.20
2022-12-09T12:47:22.755Z,2.10
2022-12-09T12:50:35.459Z,2.10
2022-12-09T12:53:40.883Z,2.10
2022-12-09T12:56:40.118Z,2.10
2022-12-09T12:59:32.191Z,2.10
2022-12-09T13:02:41.279Z,2.10
2022-12-09T13:05:29.535Z,1.90
2022-12-09T13:08:11.413Z,1.80
2022-12-09T13:10:57.975Z,1.80
2022-12-09T13:13:39.973Z,1.80
2022-12-09T13:16:30.363Z,1.80
2022-12-09T13:19:17.263Z,1.90
2022-12-09T13:21:49.331Z,1.90
2022-12-09T13:24:41.445Z,1.70
2022-12-09T13:27:25.617Z,1.60
2022-12-09T13:30:08.642Z,1.50
2022-12-09T13:33:23.304Z,1.60
2022-12-09T13:36:06.467Z,1.50
2022-12-09T13:38:50.100Z,1.50
2022-12-09T13:42:08.364Z,1.40
2022-12-09T13:44:48.057Z,1.50
2022-12-09T13:47:36.069Z,1.50
2022-12-09T13:50:11.493Z,1.50
2022-12-09T13:52:59.374Z,1.70
2022-12-09T13:55:51.158Z,1.50
2022-12-09T13:59:06.047Z,1.50
2022-12-09T14:01:53.800Z,1.50
2022-12-09T14:04:31.404Z,1.50
2022-12-09T14:07:25.765Z,1.50
2022-12-09T14:10:39.313Z,1.50
2022-12-09T14:13:38.612Z,1.40
2022-12-09T14:16:42.807Z,1.40
2022-12-09T14:20:21.447Z,1.30
2022-12-09T14:23:20.754Z,1.30
2022-12-09T14:26:35.261Z,1.20
2022-12-09T14:29:10.024Z,1.20
2022-12-09T14:32:28.367Z,1.20
2022-12-09T14:35:26.368Z,1.20
2022-12-09T14:38:28.768Z,1.10
2022-12-09T14:41:21.259Z,1.10
2022-12-09T14:44:34.006Z,1.00
2022-12-09T14:47:26.876Z,1.00
2022-12-09T14:50:25.716Z,0.90
2022-12-09T14:53:23.156Z,0.90
2022-12-09T14:55:55.124Z,0.90
2022-12-09T14:58:42.774Z,0.90
2022-12-09T15:01:20.325Z,0.90
2022-12-09T15:04:22.693Z,0.80
2022-12-09T15:10:50.091Z,0.70
2022-12-09T15:13:28.762Z,0.60
2022-12-09T15:16:19.938Z,0.60
2022-12-09T15:19:00.241Z,0.50
2022-12-09T15:21:35.157Z,0.60
2022-12-09T15:24:27.788Z,0.60
2022-12-09T15:27:11.262Z,0.50
2022-12-09T15:29:40.671Z,0.50
2022-12-09T15:32:30.010Z,0.50
2022-12-09T15:35:39.159Z,0.50
2022-12-09T15:38:20.597Z,0.40
2022-12-09T15:41:08.817Z,0.40
2022-12-09T15:46:50.362Z,0.50
2022-12-09T15:50:01.319Z,0.40
2022-12-09T15:52:53.216Z,0.40
2022-12-09T15:58:31.441Z,0.30
2022-12-09T16:01:08.332Z,0.30
2022-12-09T16:03:47.058Z,0.20
2022-12-09T16:06:32.132Z,0.20
2022-12-09T16:09:03.348Z,0.10
2022-12-09T16:11:49.236Z,0.10
2022-12-09T16:14:30.920Z,0.10
2022-12-09T16:17:20.114Z,0.10
2022-12-09T16:19:56.013Z,0.10
2022-12-09T16:22:45.754Z,0.10
2022-12-09T16:25:27.502Z,0.20
2022-12-09T16:28:15.243Z,0.20
2022-12-09T16:31:02.470Z,0.30
2022-12-09T16:33:44.210Z,0.20
2022-12-09T16:36:33.348Z,0.20
2022-12-09T16:39:35.822Z,0.30
2022-12-09T16:42:37.859Z,0.30
2022-12-09T16:46:03.155Z,0.30
2022-12-09T16:48:46.204Z,0.20
2022-12-09T16:51:25.155Z,0.30
2022-12-09T16:54:02.590Z,0.30
2022-12-09T16:56:36.819Z,0.30
2022-12-09T16:59:21.748Z,0.20
2022-12-09T17:01:55.951Z,0.30
2022-12-09T17:04:48.300Z,0.30
2022-12-09T17:07:23.606Z,0.30
2022-12-09T17:09:53.091Z,0.40
2022-12-09T17:12:31.432Z,0.40
2022-12-09T17:15:03.922Z,0.30
2022-12-09T17:17:32.951Z,0.30
2022-12-09T17:20:11.744Z,0.30
2022-12-09T17:22:47.455Z,0.30
2022-12-09T17:25:18.672Z,0.30
2022-12-09T17:27:54.659Z,0.30
2022-12-09T17:30:26.972Z,0.30
2022-12-09T17:32:56.746Z,0.30
2022-12-09T17:35:34.012Z,0.20
2022-12-09T17:38:14.390Z,0.10
2022-12-09T17:40:46.791Z,0.10
2022-12-09T17:43:22.824Z,0.10
2022-12-09T17:45:52.567Z,0.00
2022-12-09T17:48:27.902Z,0.10
2022-12-09T17:51:05.574Z,0.10
2022-12-09T17:53:53.775Z,0.10
2022-12-09T17:56:34.848Z,0.10
2022-12-09T17:59:20.771Z,0.20
2022-12-09T18:01:56.221Z,0.10
2022-12-09T18:04:27.046Z,0.20
2022-12-09T18:07:01.999Z,0.20
2022-12-09T18:09:38.114Z,0.20
2022-12-09T18:12:07.676Z,0.20
2022-12-09T18:14:44.647Z,0.30
2022-12-09T18:17:20.668Z,0.30
2022-12-09T18:19:50.803Z,0.30
2022-12-09T18:22:25.296Z,0.40
2022-12-09T18:25:04.225Z,0.50
2022-12-09T18:30:53.287Z,0.50
2022-12-09T18:33:30.398Z,0.50
2022-12-09T18:35:59.797Z,0.50
2022-12-09T18:38:41.994Z,0.50
2022-12-09T18:41:19.747Z,0.50
2022-12-09T18:44:10.567Z,0.50
2022-12-09T18:46:50.125Z,0.50
2022-12-09T18:49:29.490Z,0.50
2022-12-09T18:52:06.717Z,0.40
2022-12-09T18:54:44.326Z,0.40
2022-12-09T18:57:20.166Z,0.40
2022-12-09T18:59:58.361Z,0.40
2022-12-09T19:02:35.622Z,0.40
2022-12-09T19:05:13.434Z,0.40
2022-12-09T19:07:50.517Z,0.40
2022-12-09T19:10:19.546Z,0.40
2022-12-09T19:12:56.636Z,0.40
2022-12-09T19:15:30.051Z,0.40
2022-12-09T19:18:12.717Z,0.40
2022-12-09T19:20:48.268Z,0.40
2022-12-09T19:23:29.115Z,0.30
2022-12-09T19:26:25.197Z,0.30
2022-12-09T19:29:02.744Z,0.30
2022-12-09T19:31:55.280Z,0.30
2022-12-09T19:34:48.225Z,0.20
2022-12-09T19:37:32.057Z,0.20
2022-12-09T19:40:02.391Z,0.20
2022-12-09T19:42:43.924Z,0.20
2022-12-09T19:45:17.993Z,0.20
2022-12-09T19:47:56.411Z,0.20
2022-12-09T19:50:29.895Z,0.10
2022-12-09T19:53:00.021Z,0.10
2022-12-09T19:55:33.318Z,0.10
2022-12-09T19:58:09.488Z,0.10
2022-12-09T20:00:48.866Z,0.10
2022-12-09T20:03:26.747Z,0.10
2022-12-09T20:06:14.865Z,0.10
2022-12-09T20:08:57.129Z,0.10
2022-12-09T20:11:31.910Z,0.10
2022-12-09T20:14:05.578Z,0.10
2022-12-09T20:16:38.373Z,0.10
2022-12-09T20:22:03.382Z,0.10
2022-12-09T20:24:36.292Z,0.10
2022-12-09T20:27:06.051Z,0.10
2022-12-09T20:29:40.623Z,0.10
2022-12-09T20:32:11.310Z,0.00
2022-12-09T20:34:48.043Z,0.00
2022-12-09T20:37:18.990Z,0.10
2022-12-09T20:39:49.748Z,0.10
2022-12-09T20:42:24.541Z,0.10
2022-12-09T20:44:59.200Z,0.10
2022-12-09T20:47:29.159Z,0.00
2022-12-09T20:49:59.114Z,0.00
2022-12-09T20:52:37.353Z,0.00
2022-12-09T20:55:09.134Z,0.00
2022-12-09T20:57:47.392Z,0.00
2022-12-09T21:00:17.546Z,0.00
2022-12-09T21:02:46.294Z,0.00
2022-12-09T21:05:15.042Z,0.10
2022-12-09T21:07:46.257Z,0.00
2022-12-09T21:10:17.757Z,0.00
2022-12-09T21:12:47.125Z,0.00
2022-12-09T21:15:16.559Z,0.00
2022-12-09T21:17:48.645Z,0.00
2022-12-09T21:20:19.126Z,0.00
2022-12-09T21:23:10.613Z,0.00
2022-12-09T21:25:43.247Z,0.00
2022-12-09T21:28:15.723Z,0.00
2022-12-09T21:30:46.824Z,0.00
2022-12-09T21:33:18.876Z,0.00
2022-12-09T21:35:52.466Z,0.00
2022-12-09T21:38:23.025Z,-0.10
2022-12-09T21:40:52.628Z,-0.10
2022-12-09T21:43:26.166Z,-0.10
2022-12-09T21:45:56.275Z,-0.10
2022-12-09T21:48:27.411Z,-0.10
2022-12-09T21:51:04.509Z,-0.10
2022-12-09T21:53:36.258Z,-0.10
2022-12-09T21:56:11.183Z,-0.10
2022-12-09T21:58:43.698Z,-0.10
2022-12-09T22:01:17.911Z,-0.10
2022-12-09T22:03:53.101Z,-0.10
2022-12-09T22:06:22.317Z,-0.10
2022-12-09T22:08:54.415Z,-0.10
2022-12-09T22:11:30.968Z,-0.10
2022-12-09T22:14:04.044Z,-0.10
2022-12-09T22:16:47.280Z,-0.10
2022-12-09T22:19:21.764Z,-0.10
2022-12-09T22:21:53.685Z,-0.10
2022-12-09T22:24:44.837Z,-0.10
2022-12-09T22:27:19.674Z,-0.10
2022-12-09T22:29:55.482Z,-0.10
2022-12-09T22:32:25.739Z,-0.10
2022-12-09T22:34:59.414Z,-0.10
2022-12-09T22:37:46.621Z,-0.20
2022-12-09T22:40:24.327Z,-0.20
2022-12-09T22:42:59.054Z,-0.20
2022-12-09T22:45:50.617Z,-0.20
2022-12-09T22:48:20.902Z,-0.20
2022-12-09T22:50:50.495Z,-0.20
2022-12-09T22:53:22.451Z,-0.10
2022-12-09T22:55:56.987Z,-0.20
2022-12-09T22:58:27.768Z,-0.20
2022-12-09T23:01:14.685Z,-0.20
2022-12-09T23:03:53.762Z,-0.20
2022-12-09T23:06:36.028Z,-0.20
2022-12-09T23:09:42.137Z,-0.20
2022-12-09T23:12:14.860Z,-0.30
2022-12-09T23:17:27.380Z,-0.30
2022-12-09T23:19:58.379Z,-0.30
2022-12-09T23:22:31.685Z,-0.30
2022-12-09T23:25:06.349Z,-0.30
2022-12-09T23:27:37.337Z,-0.30
2022-12-09T23:30:08.471Z,-0.30
2022-12-09T23:32:38.290Z,-0.30
2022-12-09T23:35:12.040Z,-0.30
2022-12-09T23:37:41.688Z,-0.30
2022-12-09T23:40:17.252Z,-0.30
2022-12-09T23:43:01.601Z,-0.30
2022-12-09T23:45:42.740Z,-0.30
2022-12-09T23:48:32.620Z,-0.30
2022-12-09T23:51:12.354Z,-0.20
2022-12-09T23:53:45.333Z,-0.30
2022-12-09T23:56:20.424Z,-0.30
2022-12-09T23:59:06.015Z,-0.30
